• Join FlightAware (Why Join?)
  • Login
  • US Flag 
Gobble Gobble! 
04:06PM EST


 

Airport Tracker/Info


-or-


 

Live Flight TrackerFlight Track Log ✈ N381HC ✈ 2013年05月 7日 ✈ KRNO - KSLC

Flight Track Log - Related Links

Times and Time Zones

All times are in EDT time to prevent confusion due to time zone crossing. See the N381HC flight status page for this flight to view local times or setup timezone preferences in your user account.

Time Position Orientation Groundspeed Altitude Reporting Facility
EDT Latitude Longitude Course Direction KTS MPH feet Rate Location/Type
04:06AM 39.4667 -119.7667 180° South 150 173 6,200  Level Northern Cal TRACON
04:07AM 39.4167 -119.7667 180° South 168 193 8,100 1,860 Climbing Northern Cal TRACON
04:08AM 39.4000 -119.7167 113° Southeast 177 204 10,200 1,860 Climbing Northern Cal TRACON
04:09AM 39.4225 -119.6200 73° East 177 204 13,300 1,920 Climbing Salt Lake Center
04:10AM 39.4308 -119.5831 74° East 177 204 14,500 1,860 Climbing Oakland Center
04:11AM 39.4442 -119.5211 74° East 178 205 16,300 1,800 Climbing Oakland Center
04:12AM 39.4567 -119.4619 75° East 172 198 18,100 1,680 Climbing Oakland Center
04:13AM 39.4678 -119.4025 76° East 171 197 19,700 1,740 Climbing Oakland Center
04:14AM 39.4806 -119.3456 74° East 165 190 21,600 1,560 Climbing Oakland Center
04:15AM 39.4919 -119.2925 74° East 157 181 22,900 1,260 Climbing Oakland Center
04:16AM 39.5028 -119.2381 76° East 155 178 24,200 1,020 Climbing Oakland Center
04:17AM 39.5144 -119.1842 74° East 155 178 25,000 360 Climbing Oakland Center
04:18AM 39.5294 -119.1147 74° East 202 232 25,000  Level Oakland Center
04:19AM 39.5458 -119.0372 75° East 219 252 25,000  Level Oakland Center
04:20AM 39.5628 -118.9575 75° East 226 260 25,000  Level Oakland Center
04:21AM 39.5800 -118.8753 75° East 234 269 25,000  Level Oakland Center
04:22AM 39.5972 -118.7922 75° East 236 272 25,000  Level Oakland Center
04:23AM 39.6153 -118.7072 75° East 241 277 25,000  Level Oakland Center
04:24AM 39.6322 -118.6231 75° East 240 276 25,000  Level Oakland Center
04:25AM 39.6500 -118.5375 75° East 243 280 25,000  Level Oakland Center
04:26AM 39.6667 -118.4531 76° East 242 278 25,000  Level Oakland Center
04:27AM 39.6842 -118.3678 75° East 244 281 25,000  Level Oakland Center
04:28AM 39.7011 -118.2844 75° East 240 276 25,000  Level Oakland Center
04:29AM 39.7183 -118.1986 75° East 244 281 25,000  Level Oakland Center
04:30AM 39.7356 -118.1131 75° East 244 281 25,000  Level Oakland Center
04:31AM 39.7525 -118.0286 75° East 242 278 25,000  Level Oakland Center
04:32AM 39.7694 -117.9431 76° East 243 280 25,000  Level Oakland Center
04:33AM 39.7858 -117.8578 76° East 242 278 25,000  Level Oakland Center
04:34AM 39.8028 -117.7731 75° East 241 277 25,000  Level Oakland Center
04:35AM 39.8200 -117.6864 75° East 243 280 25,000  Level Oakland Center
04:36AM 39.8364 -117.6025 76° East 244 281 25,000  Level Oakland Center
04:37AM 39.8519 -117.5239 76° East 241 277 25,000  Level Oakland Center
04:38AM 39.8681 -117.4425 76° East 241 277 25,000  Level Oakland Center
04:39AM 39.8867 -117.3467 76° East 243 280 25,000  Level Oakland Center
04:40AM 39.8917 -117.3189 77° East 244 281 25,000  Level Salt Lake Center
04:41AM 39.9103 -117.2244 76° East 241 277 25,000  Level Salt Lake Center
04:42AM 39.9253 -117.1433 76° East 241 277 25,000  Level Salt Lake Center
04:42AM 39.9358 -117.0903 75° East 241 277 25,000  Level Oakland Center
04:43AM 39.9517 -117.0092 76° East 241 277 25,000  Level Oakland Center
04:44AM 39.9656 -116.9278 77° East 241 277 25,000  Level Oakland Center
04:45AM 39.9811 -116.8469 76° East 241 277 25,000  Level Oakland Center
04:46AM 39.9889 -116.8064 76° East 240 276 25,000  Level Salt Lake Center
04:47AM 40.0042 -116.7267 76° East 239 275 25,000  Level Salt Lake Center
04:48AM 40.0208 -116.6322 77° East 239 275 25,000  Level Salt Lake Center
04:48AM 40.0289 -116.5925 75° East 239 275 25,000  Level Oakland Center
04:49AM 40.0469 -116.5006 76° East 237 273 25,000  Level Oakland Center
04:50AM 40.0603 -116.4194 78° East 237 273 25,000  Level Oakland Center
04:52AM 40.0833 -116.2994 76° East 238 274 25,000  Level Salt Lake Center
04:53AM 40.0978 -116.2192 77° East 238 274 25,000  Level Salt Lake Center
04:54AM 40.1122 -116.1392 77° East 237 273 25,000  Level Salt Lake Center
04:55AM 40.1292 -116.0436 77° East 240 276 25,000  Level Salt Lake Center
04:56AM 40.1450 -115.9642 75° East 238 274 25,000  Level Salt Lake Center
04:57AM 40.1592 -115.8833 77° East 238 274 25,000  Level Salt Lake Center
04:58AM 40.1747 -115.8025 76° East 238 274 25,000  Level Salt Lake Center
04:59AM 40.1903 -115.7100 78° East 235 270 25,000  Level Salt Lake Center
05:00AM 40.2047 -115.6303 77° East 235 270 25,000  Level Salt Lake Center
05:01AM 40.2192 -115.5494 77° East 237 273 25,000  Level Salt Lake Center
05:02AM 40.2364 -115.4556 76° East 237 273 25,000  Level Salt Lake Center
05:03AM 40.2492 -115.3775 78° East 232 267 25,000  Level Salt Lake Center
05:04AM 40.2622 -115.3017 77° East 226 260 25,000  Level Salt Lake Center
05:05AM 40.2753 -115.2275 77° East 221 254 25,000  Level Salt Lake Center
05:06AM 40.2911 -115.1375 77° East 225 259 25,000  Level Salt Lake Center
05:07AM 40.3039 -115.0608 78° East 225 259 25,000  Level Salt Lake Center
05:08AM 40.3178 -114.9844 77° East 225 259 25,000  Level Salt Lake Center
05:09AM 40.3306 -114.9069 78° East 226 260 25,000  Level Salt Lake Center
05:10AM 40.3458 -114.8167 77° East 227 261 25,000  Level Salt Lake Center
05:11AM 40.3603 -114.7372 77° East 232 267 25,000  Level Salt Lake Center
05:12AM 40.3747 -114.6542 77° East 234 269 25,000  Level Salt Lake Center
05:13AM 40.3886 -114.5714 78° East 234 269 25,000  Level Salt Lake Center
05:14AM 40.4025 -114.4889 78° East 232 267 25,000  Level Salt Lake Center
05:15AM 40.4156 -114.4058 78° East 233 268 25,000  Level Salt Lake Center
05:16AM 40.4300 -114.3231 77° East 233 268 25,000  Level Salt Lake Center
05:17AM 40.4433 -114.2408 78° East 232 267 25,000  Level Salt Lake Center
05:18AM 40.4569 -114.1586 78° East 231 266 25,000  Level Salt Lake Center
05:19AM 40.4708 -114.0764 77° East 231 266 25,000  Level Salt Lake Center
05:20AM 40.4828 -113.9908 80° East 237 273 25,000  Level Salt Lake Center
05:21AM 40.4975 -113.9058 77° East 239 275 25,000 -360 Level Salt Lake Center
05:22AM 40.5125 -113.8194 77° East 242 278 24,300 -840 Descending Salt Lake Center
05:23AM 40.5281 -113.7233 78° East 263 303 23,400 -900 Descending Salt Lake Center
05:24AM 40.5431 -113.6256 79° East 272 313 22,500 -900 Descending Salt Lake Center
05:25AM 40.5586 -113.5275 78° East 275 316 21,600 -900 Descending Salt Lake Center
05:26AM 40.5733 -113.4292 79° East 275 316 20,700 -900 Descending Salt Lake Center
05:27AM 40.5886 -113.3314 78° East 274 315 19,800 -900 Descending Salt Lake Center
05:28AM 40.6025 -113.2331 79° East 274 315 18,900 -900 Descending Salt Lake Center
05:29AM 40.6169 -113.1350 79° East 273 314 18,000 -960 Descending Salt Lake Center
05:29AM 40.6347 -113.0564 73° East 275 316 17,200 -960 Descending Salt Lake Center
05:31AM 40.6497 -112.9528 79° East 273 314 16,300 -900 Descending Salt Lake Center
05:32AM 40.6664 -112.8486 78° East 271 312 15,300 -960 Descending Salt Lake Center
05:33AM 40.6797 -112.7483 80° East 275 316 14,400 -900 Descending Salt Lake Center
05:34AM 40.6950 -112.6475 79° East 281 323 13,500 -900 Descending Salt Lake Center
05:35AM 40.7081 -112.5472 80° East 279 321 12,600 -900 Descending Salt Lake Center
05:36AM 40.7236 -112.4489 78° East 276 318 11,700 -1,020 Descending Salt Lake Center
05:37AM 40.7414 -112.3522 76° East 274 315 10,600 -1,140 Descending Salt Lake Center
05:38AM 40.7589 -112.2531 77° East 275 316 9,500 -1,140 Descending Salt Lake Center
05:39AM 40.7847 -112.1539 71° East 274 315 8,300 -1,200 Descending Salt Lake Center
05:40AM 40.8161 -112.0611 66° East 273 314 7,200 -1,200 Descending Salt Lake Center
05:41AM 40.8425 -111.9869 65° Northeast 201 231 5,900 -1,200 Descending Salt Lake Center
05:42AM 40.8142 -111.9625 147° Southeast 129 148 4,900 -840 Descending Salt Lake Center
05:43AM 40.7833 -111.9625 180° South 120 138 4,200 -720 Descending Salt Lake Center